Time;durP1;ratioP1;P1;durP2;ratioP2;P2;SDS_P1;SDS_P2;PMS_P1;PMS_P2;Temp;Humidity;BMP_temperature;BMP_pressure;BME280_temperature;BME280_humidity;BME280_pressure;Samples;Min_cycle;Max_cycle;Signal;HPM_P1;HPM_P2
2022/05/04 00:00:18;;;;;;;;;;;;;;;;;;2587134;23;19999;-80
2022/05/04 00:01:18;;;;;;;4.68;3.90;;;;;;;;;;2586766;22;19975;-80
2022/05/04 00:02:21;;;;;;;;;;;;;;;;;;2587451;23;19996;-81
2022/05/04 00:03:21;;;;;;;4.63;3.88;;;;;;;;;;2586415;23;19919;-81
2022/05/04 00:04:21;;;;;;;;;;;;;;;;;;2569989;23;20039;-80
2022/05/04 00:05:22;;;;;;;4.45;4.05;;;;;;;;;;2569985;23;19904;-81
2022/05/04 00:06:22;;;;;;;;;;;;;;;;;;2570046;23;20246;-81
2022/05/04 00:07:22;;;;;;;3.85;3.50;;;;;;;;;;2586289;23;19915;-80
2022/05/04 00:08:25;;;;;;;3.70;3.40;;;;;;;;;;2586901;23;19996;-80
2022/05/04 00:09:26;;;;;;;4.68;3.40;;;;;;;;;;2586635;23;20417;-81
2022/05/04 00:10:26;;;;;;;;;;;;;;;;;;2587593;23;20003;-81
2022/05/04 00:11:26;;;;;;;3.05;2.65;;;;;;;;;;2569451;23;19995;-80
2022/05/04 00:12:27;;;;;;;;;;;;;;;;;;2569953;23;20001;-80
2022/05/04 00:13:28;;;;;;;4.10;3.67;;;;;;;;;;2586115;23;19914;-81
2022/05/04 00:14:29;;;;;;;4.45;3.65;;;;;;;;;;2586432;23;19995;-80
2022/05/04 00:15:29;;;;;;;5.03;3.80;;;;;;;;;;2586749;23;20102;-81
2022/05/04 00:16:30;;;;;;;;;;;;;;;;;;2587538;23;20101;-80
2022/05/04 00:17:30;;;;;;;4.28;3.38;;;;;;;;;;2569294;23;19908;-81
2022/05/04 00:18:33;;;;;;;;;;;;;;;;;;2569971;23;20442;-81
2022/05/04 00:19:36;;;;;;;4.85;3.50;;;;;;;;;;2574306;23;19904;-81
2022/05/04 00:20:37;;;;;;;3.65;2.95;;;;;;;;;;2586619;23;20065;-80
2022/05/04 00:21:37;;;;;;;;;;;;;;;;;;2583362;22;20310;-81
2022/05/04 00:22:37;;;;;;;5.97;3.73;;;;;;;;;;2586848;23;19914;-79
2022/05/04 00:23:41;;;;;;;5.28;3.80;;;;;;;;;;2586660;23;20016;-80
2022/05/04 00:24:41;;;;;;;8.95;3.63;;;;;;;;;;2569463;23;20347;-80
2022/05/04 00:25:44;;;;;;;;;;;;;;;;;;2570143;23;20005;-78
2022/05/04 00:26:44;;;;;;;4.63;3.30;;;;;;;;;;2586106;23;20380;-80
2022/05/04 00:27:45;;;;;;;;;;;;;;;;;;2582386;23;20024;-80
2022/05/04 00:28:48;;;;;;;4.65;3.15;;;;;;;;;;2586267;23;19903;-80
2022/05/04 00:29:50;;;;;;;4.75;3.15;;;;;;;;;;2586420;23;20066;-80
2022/05/04 00:30:52;;;;;;;3.75;3.45;;;;;;;;;;2586768;22;19996;-81
2022/05/04 00:31:56;;;;;;;4.18;3.35;;;;;;;;;;2569265;23;20558;-80
2022/05/04 00:33:07;;;;;;;3.90;3.40;;;;;;;;;;2574279;23;20004;-80
2022/05/04 00:34:07;;;;;;;;;;;;;;;;;;2587194;23;20042;-81
2022/05/04 00:35:08;;;;;;;3.97;2.93;;;;;;;;;;2569434;23;20227;-81
2022/05/04 00:36:08;;;;;;;;;;;;;;;;;;2574257;23;19996;-80
2022/05/04 00:37:09;;;;;;;4.47;3.17;;;;;;;;;;2584656;23;19907;-81
2022/05/04 00:38:09;;;;;;;;;;;;;;;;;;2586835;23;20000;-81
2022/05/04 00:39:10;;;;;;;5.60;3.97;;;;;;;;;;2586771;23;19995;-81
2022/05/04 00:40:10;;;;;;;5.30;4.07;;;;;;;;;;2586839;23;20026;-81
2022/05/04 00:41:10;;;;;;;;;;;;;;;;;;2569732;23;20072;-80
2022/05/04 00:42:16;;;;;;;4.10;3.67;;;;;;;;;;2569259;23;20351;-80
2022/05/04 00:43:24;;;;;;;5.28;4.28;;;;;;;;;;2569074;23;20007;-81
2022/05/04 00:44:24;;;;;;;7.13;4.32;;;;;;;;;;2570528;23;20083;-80
2022/05/04 00:45:24;;;;;;;;;;;;;;;;;;2586671;23;20012;-80
2022/05/04 00:46:25;;;;;;;7.45;5.00;;;;;;;;;;2569174;23;20299;-80
2022/05/04 00:47:25;;;;;;;;;;;;;;;;;;2569979;23;20091;-79
2022/05/04 00:48:25;;;;;;;6.53;4.53;;;;;;;;;;2581600;23;19903;-81
2022/05/04 00:49:26;;;;;;;6.03;4.47;;;;;;;;;;2573519;23;20431;-82
2022/05/04 00:50:27;;;;;;;;;;;;;;;;;;2587218;23;20399;-82
2022/05/04 00:51:28;;;;;;;6.63;4.93;;;;;;;;;;2569532;23;19904;-80
2022/05/04 00:52:29;;;;;;;7.78;4.97;;;;;;;;;;2557037;23;20417;-80
2022/05/04 00:53:29;;;;;;;;;;;;;;;;;;2568944;23;20020;-81
2022/05/04 00:54:33;;;;;;;9.07;6.23;;;;;;;;;;2573578;23;19941;-81
2022/05/04 00:55:33;;;;;;;7.22;5.57;;;;;;;;;;2582041;23;20003;-80
2022/05/04 00:56:34;;;;;;;;;;;;;;;;;;2586629;22;20059;-81
2022/05/04 00:59:00;;;;;;;7.93;5.50;;;;;;;;;;2586633;23;20004;-81
2022/05/04 01:00:02;;;;;;;6.15;4.38;;;;;;;;;;2586297;23;20014;-80
2022/05/04 01:01:06;;;;;;;6.95;4.40;;;;;;;;;;2586094;22;20000;-81
2022/05/04 01:02:06;;;;;;;6.72;4.88;;;;;;;;;;2569268;23;20332;-81
2022/05/04 01:03:07;;;;;;;;;;;;;;;;;;2570587;23;20071;-81
2022/05/04 01:04:07;;;;;;;7.80;5.80;;;;;;;;;;2586802;23;19903;-80
2022/05/04 01:05:11;;;;;;;;;;;;;;;;;;2569919;23;20371;-81
2022/05/04 01:06:12;;;;;;;7.70;5.20;;;;;;;;;;2574011;23;20394;-81
2022/05/04 01:07:14;;;;;;;7.38;5.32;;;;;;;;;;2569412;23;20008;-80
2022/05/04 01:08:15;;;;;;;6.95;5.28;;;;;;;;;;2569549;23;20339;-82
2022/05/04 01:09:17;;;;;;;;;;;;;;;;;;2587098;23;20152;-79
2022/05/04 01:10:18;;;;;;;7.57;5.57;;;;;;;;;;2586397;23;20265;-81
2022/05/04 01:11:21;;;;;;;;;;;;;;;;;;2586931;22;20027;-79
2022/05/04 01:12:24;;;;;;;9.15;5.80;;;;;;;;;;2586536;23;19965;-80
2022/05/04 01:13:25;;;;;;;9.30;5.90;;;;;;;;;;2569063;23;20000;-80
2022/05/04 01:14:25;;;;;;;;;;;;;;;;;;2574272;23;20380;-79
2022/05/04 01:15:25;;;;;;;6.57;4.80;;;;;;;;;;2569165;23;19936;-82
2022/05/04 01:16:29;;;;;;;6.30;4.97;;;;;;;;;;2556586;23;20490;-80
2022/05/04 01:17:29;;;;;;;9.38;6.03;;;;;;;;;;2574061;23;20035;-80
2022/05/04 01:18:33;;;;;;;;;;;;;;;;;;2587172;23;20380;-80
2022/05/04 01:19:33;;;;;;;6.68;5.88;;;;;;;;;;2568971;23;20235;-79
2022/05/04 01:20:33;;;;;;;;;;;;;;;;;;2573948;23;20043;-79
2022/05/04 01:21:34;;;;;;;8.80;5.72;;;;;;;;;;2569013;23;19914;-80
2022/05/04 01:22:36;;;;;;;10.57;6.57;;;;;;;;;;2556432;23;20083;-80
2022/05/04 01:23:39;;;;;;;7.90;5.68;;;;;;;;;;2569290;23;20007;-81
2022/05/04 01:24:39;;;;;;;7.13;5.57;;;;;;;;;;2568948;23;20033;-81
2022/05/04 01:25:42;;;;;;;;;;;;;;;;;;2573877;23;20000;-80
2022/05/04 01:26:45;;;;;;;8.57;5.65;;;;;;;;;;2581879;23;19907;-80
2022/05/04 01:27:46;;;;;;;6.93;5.18;;;;;;;;;;2586120;23;19992;-79
2022/05/04 01:28:46;;;;;;;;;;;;;;;;;;2587170;23;20054;-80
2022/05/04 01:29:50;;;;;;;11.10;5.97;;;;;;;;;;2586476;23;20207;-81
2022/05/04 01:30:50;;;;;;;7.97;5.57;;;;;;;;;;2569165;23;19993;-83
2022/05/04 01:31:51;;;;;;;;;;;;;;;;;;2557471;23;20001;-81
2022/05/04 01:32:51;;;;;;;7.17;5.70;;;;;;;;;;2573489;23;20233;-82
2022/05/04 01:33:51;;;;;;;;;;;;;;;;;;2586888;23;20403;-80
2022/05/04 01:34:52;;;;;;;8.57;5.60;;;;;;;;;;2586716;23;19903;-80
2022/05/04 01:35:52;;;;;;;;;;;;;;;;;;2587130;23;20064;-80
2022/05/04 01:36:55;;;;;;;11.53;5.23;;;;;;;;;;2569361;23;19966;-80
2022/05/04 01:37:55;;;;;;;8.32;5.10;;;;;;;;;;2573641;23;20020;-81
2022/05/04 01:38:56;;;;;;;;;;;;;;;;;;2587263;23;20050;-80
2022/05/04 01:39:58;;;;;;;6.73;5.57;;;;;;;;;;2569145;23;19918;-80
2022/05/04 01:41:00;;;;;;;8.02;5.20;;;;;;;;;;2568713;23;20419;-81
2022/05/04 01:42:03;;;;;;;6.63;5.03;;;;;;;;;;2586594;23;20490;-81
2022/05/04 01:43:11;;;;;;;10.82;4.88;;;;;;;;;;2568821;23;19997;-81
2022/05/04 01:44:11;;;;;;;7.30;5.03;;;;;;;;;;2575079;23;20001;-81
2022/05/04 01:45:11;;;;;;;;;;;;;;;;;;2569380;23;19997;-81
2022/05/04 01:46:16;;;;;;;6.32;4.57;;;;;;;;;;2573440;23;20250;-81
2022/05/04 01:47:17;;;;;;;6.88;4.20;;;;;;;;;;2586616;23;20079;-81
2022/05/04 01:48:17;;;;;;;;;;;;;;;;;;2569890;23;20001;-79
2022/05/04 01:49:18;;;;;;;6.43;4.87;;;;;;;;;;2557061;23;19904;-81
2022/05/04 01:50:18;;;;;;;;;;;;;;;;;;2573492;23;19988;-78
2022/05/04 01:51:19;;;;;;;8.90;5.63;;;;;;;;;;2581392;23;20270;-80
2022/05/04 01:52:22;;;;;;;10.93;5.40;;;;;;;;;;2569434;23;20075;-80
2022/05/04 01:53:22;;;;;;;7.22;4.93;;;;;;;;;;2569628;23;20007;-82
2022/05/04 01:54:23;;;;;;;;;;;;;;;;;;2586748;23;20469;-79
2022/05/04 01:55:27;;;;;;;10.57;4.15;;;;;;;;;;2586556;23;19907;-80
2022/05/04 01:56:28;;;;;;;8.25;5.88;;;;;;;;;;2582500;23;19996;-80
2022/05/04 01:57:31;;;;;;;;;;;;;;;;;;2569665;23;20000;-79
2022/05/04 01:58:34;;;;;;;11.00;5.88;;;;;;;;;;2557341;23;19915;-79
2022/05/04 01:59:35;;;;;;;6.65;5.40;;;;;;;;;;2573670;23;20146;-78
2022/05/04 02:00:35;;;;;;;;;;;;;;;;;;2569952;23;20047;-80
2022/05/04 02:01:47;;;;;;;8.43;6.07;;;;;;;;;;2573525;23;19914;-81
2022/05/04 02:02:48;;;;;;;9.88;5.80;;;;;;;;;;2586557;23;19998;-79
2022/05/04 02:03:50;;;;;;;;;;;;;;;;;;2586850;23;20307;-79
2022/05/04 02:04:56;;;;;;;8.05;5.32;;;;;;;;;;2582117;22;19918;-80
2022/05/04 02:05:59;;;;;;;8.63;6.95;;;;;;;;;;2586022;23;20059;-80
2022/05/04 02:07:00;;;;;;;11.27;6.22;;;;;;;;;;2581834;23;20038;-81
2022/05/04 02:08:02;;;;;;;10.15;5.80;;;;;;;;;;2586121;23;20011;-80
2022/05/04 02:09:06;;;;;;;7.93;6.18;;;;;;;;;;2586689;23;20300;-80
2022/05/04 02:10:18;;;;;;;10.35;6.68;;;;;;;;;;2586847;23;20026;-81
2022/05/04 02:11:19;;;;;;;12.85;7.05;;;;;;;;;;2587079;22;19992;-80
2022/05/04 02:12:20;;;;;;;;;;;;;;;;;;2587984;23;20102;-81
2022/05/04 02:13:20;;;;;;;10.70;7.17;;;;;;;;;;2587355;23;19911;-80
2022/05/04 02:14:21;;;;;;;12.23;6.47;;;;;;;;;;2587270;23;20457;-81
2022/05/04 02:15:24;;;;;;;11.73;7.50;;;;;;;;;;2587478;23;19992;-81
2022/05/04 02:16:32;;;;;;;10.27;6.50;;;;;;;;;;2587318;23;20003;-79
2022/05/04 02:17:32;;;;;;;13.98;8.60;;;;;;;;;;2587172;23;20130;-79
2022/05/04 02:18:42;;;;;;;;;;;;;;;;;;2587977;23;20195;-79
2022/05/04 02:19:44;;;;;;;9.63;5.85;;;;;;;;;;2587550;23;19915;-79
2022/05/04 02:20:49;;;;;;;15.23;8.48;;;;;;;;;;2587192;22;20053;-82
2022/05/04 02:21:55;;;;;;;13.60;7.28;;;;;;;;;;2587192;23;20354;-79
2022/05/04 02:22:56;;;;;;;13.85;8.82;;;;;;;;;;2574191;23;20000;-81
2022/05/04 02:23:56;;;;;;;;;;;;;;;;;;2574845;23;19997;-79
2022/05/04 02:25:04;;;;;;;15.70;8.63;;;;;;;;;;2587376;23;19903;-80
2022/05/04 02:26:14;;;;;;;13.25;8.27;;;;;;;;;;2587029;23;20039;-81
2022/05/04 02:27:15;;;;;;;11.02;7.45;;;;;;;;;;2583027;23;19992;-79
2022/05/04 02:28:15;;;;;;;;;;;;;;;;;;2584918;23;20000;-80
2022/05/04 02:29:19;;;;;;;17.10;9.67;;;;;;;;;;2583685;23;19937;-80
2022/05/04 02:30:22;;;;;;;13.30;8.57;;;;;;;;;;2587554;23;19988;-80
2022/05/04 02:31:25;;;;;;;15.07;9.48;;;;;;;;;;2587575;22;20006;-81
2022/05/04 02:32:25;;;;;;;13.80;8.25;;;;;;;;;;2587208;23;20307;-81
2022/05/04 02:33:35;;;;;;;;;;;;;;;;;;2588054;23;20015;-81
2022/05/04 02:38:50;;;;;;;;;;;;;;;;;;2587993;23;20314;-82
2022/05/04 02:39:53;;;;;;;16.65;8.23;;;;;;;;;;2586882;23;19907;-81
2022/05/04 02:40:54;;;;;;;16.38;8.43;;;;;;;;;;2587166;22;19992;-81
2022/05/04 02:41:57;;;;;;;;;;;;;;;;;;2587653;23;20019;-80
2022/05/04 02:43:01;;;;;;;14.32;7.65;;;;;;;;;;2587425;23;19907;-81
2022/05/04 02:44:19;;;;;;;15.38;8.63;;;;;;;;;;2587329;23;20113;-81
2022/05/04 02:45:20;;;;;;;16.23;7.82;;;;;;;;;;2569955;23;20004;-81
2022/05/04 02:46:22;;;;;;;;;;;;;;;;;;2571162;23;20095;-80
2022/05/04 02:47:25;;;;;;;19.05;8.30;;;;;;;;;;2586913;23;19903;-81
2022/05/04 02:48:29;;;;;;;16.42;8.88;;;;;;;;;;2587248;23;20028;-80
2022/05/04 02:49:29;;;;;;;15.18;7.85;;;;;;;;;;2586993;23;20030;-81
2022/05/04 02:50:30;;;;;;;;;;;;;;;;;;2583976;23;19996;-80
2022/05/04 02:51:30;;;;;;;14.77;9.93;;;;;;;;;;2587062;22;19990;-80
2022/05/04 02:52:33;;;;;;;13.75;8.00;;;;;;;;;;2587393;23;20011;-80
2022/05/04 02:53:34;;;;;;;15.07;9.15;;;;;;;;;;2582203;23;19996;-80
2022/05/04 02:54:35;;;;;;;17.20;9.32;;;;;;;;;;2569437;23;20001;-80
2022/05/04 02:55:35;;;;;;;;;;;;;;;;;;2557531;23;20067;-80
2022/05/04 02:56:36;;;;;;;15.60;8.80;;;;;;;;;;2573830;23;19903;-80
2022/05/04 02:57:36;;;;;;;;;;;;;;;;;;2587802;23;19999;-80
2022/05/04 02:58:39;;;;;;;15.00;8.63;;;;;;;;;;2586984;23;20307;-80
2022/05/04 02:59:43;;;;;;;17.33;9.10;;;;;;;;;;2586923;23;20314;-80
2022/05/04 03:00:48;;;;;;;13.50;7.57;;;;;;;;;;2569455;23;20000;-80
2022/05/04 03:03:15;;;;;;;15.07;7.50;;;;;;;;;;2587031;23;20000;-80
2022/05/04 03:04:16;;;;;;;;;;;;;;;;;;2570068;23;20370;-80
2022/05/04 03:05:18;;;;;;;16.03;8.27;;;;;;;;;;2573887;23;19911;-80
2022/05/04 03:06:22;;;;;;;13.18;6.93;;;;;;;;;;2586967;23;19999;-80
2022/05/04 03:07:26;;;;;;;13.52;8.45;;;;;;;;;;2586783;23;19996;-80
2022/05/04 03:08:26;;;;;;;13.15;8.07;;;;;;;;;;2586951;23;19992;-81
2022/05/04 03:09:29;;;;;;;;;;;;;;;;;;2582389;23;20008;-81
2022/05/04 03:10:29;;;;;;;11.75;7.28;;;;;;;;;;2586344;23;19911;-80
2022/05/04 03:12:49;;;;;;;12.05;6.47;;;;;;;;;;2587158;23;19904;-80
2022/05/04 03:13:51;;;;;;;;;;;;;;;;;;2587806;23;20079;-81
2022/05/04 03:14:53;;;;;;;12.98;6.93;;;;;;;;;;2586965;23;19903;-81
2022/05/04 03:15:56;;;;;;;12.77;7.25;;;;;;;;;;2586956;23;20070;-81
2022/05/04 03:16:57;;;;;;;14.75;6.93;;;;;;;;;;2569450;23;20004;-80
2022/05/04 03:18:00;;;;;;;;;;;;;;;;;;2569613;23;19997;-80
2022/05/04 03:19:01;;;;;;;12.95;7.07;;;;;;;;;;2586371;23;20306;-80
2022/05/04 03:20:03;;;;;;;9.77;6.65;;;;;;;;;;2586683;23;20374;-80
2022/05/04 03:21:05;;;;;;;12.15;7.80;;;;;;;;;;2586556;22;20000;-81
2022/05/04 03:22:08;;;;;;;11.48;6.80;;;;;;;;;;2586718;23;20003;-81
2022/05/04 03:23:11;;;;;;;10.10;6.85;;;;;;;;;;2586684;23;19996;-80
2022/05/04 03:24:11;;;;;;;14.02;6.30;;;;;;;;;;2586351;23;20093;-80
2022/05/04 03:25:12;;;;;;;;;;;;;;;;;;2587393;23;20054;-80
2022/05/04 03:26:25;;;;;;;11.77;6.57;;;;;;;;;;2586987;23;20417;-80
2022/05/04 03:27:26;;;;;;;9.60;6.25;;;;;;;;;;2569446;23;20008;-80
2022/05/04 03:28:29;;;;;;;;;;;;;;;;;;2574051;23;20408;-80
2022/05/04 03:29:31;;;;;;;8.13;6.03;;;;;;;;;;2586757;23;19903;-80
2022/05/04 03:30:32;;;;;;;11.48;5.97;;;;;;;;;;2569280;23;20011;-81
2022/05/04 03:31:33;;;;;;;;;;;;;;;;;;2557158;23;19997;-80
2022/05/04 03:32:33;;;;;;;9.53;6.43;;;;;;;;;;2573510;23;19946;-80
2022/05/04 03:33:33;;;;;;;;;;;;;;;;;;2587639;23;20000;-80
2022/05/04 03:34:36;;;;;;;8.77;6.57;;;;;;;;;;2587121;23;19969;-81
2022/05/04 03:35:57;;;;;;;9.70;6.10;;;;;;;;;;2586881;23;20339;-80
2022/05/04 03:37:03;;;;;;;8.65;5.22;;;;;;;;;;2586656;23;19996;-80
2022/05/04 03:38:14;;;;;;;9.20;5.95;;;;;;;;;;2573397;23;19996;-80
2022/05/04 03:39:18;;;;;;;10.23;6.00;;;;;;;;;;2575946;23;20004;-80
2022/05/04 03:40:31;;;;;;;9.23;6.13;;;;;;;;;;2569262;23;20001;-80
2022/05/04 03:41:45;;;;;;;8.30;5.22;;;;;;;;;;2576299;23;20020;-80
2022/05/04 03:42:45;;;;;;;8.88;5.22;;;;;;;;;;2586874;23;20002;-80
2022/05/04 03:43:46;;;;;;;;;;;;;;;;;;2587054;23;20316;-80
2022/05/04 03:44:46;;;;;;;7.03;4.50;;;;;;;;;;2569118;23;19904;-80
2022/05/04 03:45:52;;;;;;;;;;;;;;;;;;2557472;23;20390;-80
2022/05/04 03:46:55;;;;;;;9.75;5.75;;;;;;;;;;2562040;23;19904;-80
2022/05/04 03:47:55;;;;;;;7.35;4.90;;;;;;;;;;2574112;23;19992;-81
2022/05/04 03:48:57;;;;;;;;;;;;;;;;;;2569692;23;20522;-80
2022/05/04 03:49:57;;;;;;;8.65;5.82;;;;;;;;;;2573845;23;19931;-80
2022/05/04 03:50:57;;;;;;;;;;;;;;;;;;2587158;22;20429;-80
2022/05/04 03:52:00;;;;;;;12.47;5.33;;;;;;;;;;2586921;23;19994;-80
2022/05/04 03:53:03;;;;;;;5.97;3.75;;;;;;;;;;2569402;23;20426;-80
2022/05/04 03:54:04;;;;;;;7.20;5.13;;;;;;;;;;2573922;23;20007;-80
2022/05/04 03:55:13;;;;;;;;;;;;;;;;;;2569812;23;20421;-80
2022/05/04 03:56:17;;;;;;;6.78;5.03;;;;;;;;;;2558746;23;20003;-80
2022/05/04 03:57:18;;;;;;;10.82;5.07;;;;;;;;;;2574243;23;19996;-80
2022/05/04 03:58:20;;;;;;;;;;;;;;;;;;2587307;23;20074;-80
2022/05/04 03:59:21;;;;;;;10.30;4.90;;;;;;;;;;2586849;23;20294;-80
2022/05/04 04:00:23;;;;;;;;;;;;;;;;;;2587005;23;19996;-79
2022/05/04 04:01:26;;;;;;;8.07;5.00;;;;;;;;;;2586319;22;19904;-79
2022/05/04 04:02:34;;;;;;;5.53;3.70;;;;;;;;;;2586962;23;20294;-79
2022/05/04 04:03:35;;;;;;;6.78;4.88;;;;;;;;;;2586502;23;19996;-80
2022/05/04 04:04:59;;;;;;;8.95;4.78;;;;;;;;;;2586631;23;20071;-79
2022/05/04 04:06:00;;;;;;;6.72;3.95;;;;;;;;;;2586664;23;19996;-80
2022/05/04 04:07:03;;;;;;;;;;;;;;;;;;2587059;23;20403;-80
2022/05/04 04:08:13;;;;;;;7.85;5.28;;;;;;;;;;2586745;23;20215;-80
2022/05/04 04:09:14;;;;;;;7.50;4.95;;;;;;;;;;2586664;23;19992;-80
2022/05/04 04:10:14;;;;;;;6.18;3.40;;;;;;;;;;2586732;23;20045;-80
2022/05/04 04:11:18;;;;;;;7.05;5.03;;;;;;;;;;2586378;22;20427;-80
2022/05/04 04:12:18;;;;;;;6.95;4.93;;;;;;;;;;2569247;23;20400;-80
2022/05/04 04:13:19;;;;;;;;;;;;;;;;;;2574141;23;19992;-79
2022/05/04 04:14:19;;;;;;;10.23;4.03;;;;;;;;;;2586486;23;19908;-79
2022/05/04 04:15:19;;;;;;;;;;;;;;;;;;2587070;23;20074;-80
2022/05/04 04:16:28;;;;;;;7.13;4.77;;;;;;;;;;2569280;23;19914;-80
2022/05/04 04:17:29;;;;;;;6.50;4.47;;;;;;;;;;2562713;23;20084;-80
2022/05/04 04:18:30;;;;;;;5.28;3.40;;;;;;;;;;2573735;23;20063;-79
2022/05/04 04:19:30;;;;;;;;;;;;;;;;;;2587080;23;20081;-79
2022/05/04 04:22:07;;;;;;;5.05;3.40;;;;;;;;;;2586917;23;19996;-80
2022/05/04 04:23:07;;;;;;;6.32;4.20;;;;;;;;;;2586588;23;20445;-80
2022/05/04 04:24:08;;;;;;;4.93;4.00;;;;;;;;;;2581879;23;20011;-80
2022/05/04 04:25:10;;;;;;;;;;;;;;;;;;2570065;23;20000;-80
2022/05/04 04:26:13;;;;;;;;;;;;;;;;;;2574459;23;20294;-80
2022/05/04 04:27:21;;;;;;;6.70;4.45;;;;;;;;;;2586791;23;20313;-80
2022/05/04 04:28:29;;;;;;;4.68;3.22;;;;;;;;;;2586616;23;20007;-79
2022/05/04 04:29:31;;;;;;;5.10;3.38;;;;;;;;;;2586965;23;19996;-80
2022/05/04 04:30:32;;;;;;;5.95;3.90;;;;;;;;;;2586747;23;20315;-80
2022/05/04 04:31:40;;;;;;;;;;;;;;;;;;2569859;23;20006;-80
2022/05/04 04:32:40;;;;;;;5.45;4.15;;;;;;;;;;2574886;23;19911;-80
2022/05/04 04:33:46;;;;;;;;;;;;;;;;;;2587361;23;19996;-80
2022/05/04 04:34:48;;;;;;;6.75;3.97;;;;;;;;;;2586644;23;20317;-80
2022/05/04 04:35:51;;;;;;;7.28;3.83;;;;;;;;;;2586778;23;19995;-80
2022/05/04 04:36:51;;;;;;;7.90;4.10;;;;;;;;;;2586387;23;20071;-81
2022/05/04 04:38:12;;;;;;;;;;;;;;;;;;2587137;23;20399;-80
2022/05/04 04:39:20;;;;;;;6.75;4.18;;;;;;;;;;2582053;23;19969;-80
2022/05/04 04:40:21;;;;;;;6.32;4.15;;;;;;;;;;2569051;23;20013;-79
2022/05/04 04:41:21;;;;;;;;;;;;;;;;;;2557632;23;20447;-79
2022/05/04 04:42:22;;;;;;;7.37;4.00;;;;;;;;;;2573463;23;19915;-80
2022/05/04 04:43:22;;;;;;;4.97;3.72;;;;;;;;;;2586545;23;19995;-81
2022/05/04 04:44:28;;;;;;;7.25;3.83;;;;;;;;;;2569198;23;20051;-81
2022/05/04 04:45:30;;;;;;;5.20;3.53;;;;;;;;;;2570283;23;20027;-80
2022/05/04 04:46:30;;;;;;;9.60;4.43;;;;;;;;;;2586097;23;19996;-80
2022/05/04 04:47:31;;;;;;;;;;;;;;;;;;2583271;23;20079;-81
2022/05/04 04:48:33;;;;;;;7.27;4.10;;;;;;;;;;2586442;23;20227;-80
2022/05/04 04:49:34;;;;;;;6.43;4.25;;;;;;;;;;2586532;23;20019;-81
2022/05/04 04:50:35;;;;;;;;;;;;;;;;;;2587208;23;20046;-81
2022/05/04 04:51:47;;;;;;;7.10;3.90;;;;;;;;;;2582918;22;19927;-81
2022/05/04 04:53:00;;;;;;;4.03;2.95;;;;;;;;;;2569258;23;19996;-81
2022/05/04 04:54:00;;;;;;;4.50;3.13;;;;;;;;;;2576107;23;20040;-81
2022/05/04 04:55:08;;;;;;;;;;;;;;;;;;2587269;23;19996;-80
2022/05/04 04:56:08;;;;;;;4.32;3.10;;;;;;;;;;2586043;23;19903;-81
2022/05/04 04:57:11;;;;;;;;;;;;;;;;;;2586757;22;20067;-81
2022/05/04 04:58:15;;;;;;;7.38;4.00;;;;;;;;;;2569015;23;19986;-81
2022/05/04 04:59:18;;;;;;;4.00;3.25;;;;;;;;;;2569911;23;20050;-80
2022/05/04 05:00:24;;;;;;;7.10;3.92;;;;;;;;;;2586588;23;19996;-81
2022/05/04 05:01:28;;;;;;;5.80;3.38;;;;;;;;;;2586536;22;19992;-81
2022/05/04 05:02:34;;;;;;;6.57;4.60;;;;;;;;;;2569062;23;20479;-81
2022/05/04 05:03:47;;;;;;;7.10;4.28;;;;;;;;;;2574309;23;20032;-81
2022/05/04 05:05:00;;;;;;;7.88;4.22;;;;;;;;;;2586499;23;20053;-83
2022/05/04 05:06:19;;;;;;;5.40;4.15;;;;;;;;;;2586413;23;19992;-81
2022/05/04 05:07:32;;;;;;;6.35;3.67;;;;;;;;;;2569494;23;20008;-82
2022/05/04 05:08:35;;;;;;;4.57;2.83;;;;;;;;;;2563140;23;20008;-81
2022/05/04 05:09:35;;;;;;;5.85;2.90;;;;;;;;;;2573889;23;19992;-81
2022/05/04 05:10:40;;;;;;;4.07;3.17;;;;;;;;;;2586589;23;20414;-81
2022/05/04 05:11:50;;;;;;;3.05;2.60;;;;;;;;;;2586329;22;19992;-81
2022/05/04 05:16:56;;;;;;;;;;;;;;;;;;2587275;23;20319;-80
2022/05/04 05:17:57;;;;;;;4.67;3.30;;;;;;;;;;2586721;23;19903;-81
2022/05/04 05:18:57;;;;;;;5.82;4.07;;;;;;;;;;2586237;23;20231;-81
2022/05/04 05:19:58;;;;;;;4.90;3.97;;;;;;;;;;2586087;23;20067;-81
2022/05/04 05:20:59;;;;;;;4.20;3.22;;;;;;;;;;2586453;22;19996;-81
2022/05/04 05:22:00;;;;;;;3.65;2.55;;;;;;;;;;2586251;23;19992;-82
2022/05/04 05:23:25;;;;;;;4.95;3.00;;;;;;;;;;2569072;23;19997;-82
2022/05/04 05:25:24;;;;;;;3.90;2.60;;;;;;;;;;2578599;23;19996;-81
2022/05/04 05:26:30;;;;;;;3.80;2.80;;;;;;;;;;2581686;23;20000;-80
2022/05/04 05:27:40;;;;;;;6.43;2.72;;;;;;;;;;2568911;23;20423;-80
2022/05/04 05:28:48;;;;;;;4.03;2.97;;;;;;;;;;2575502;23;20072;-79
2022/05/04 05:30:00;;;;;;;4.53;2.60;;;;;;;;;;2586230;23;20031;-80
2022/05/04 05:31:18;;;;;;;4.70;2.78;;;;;;;;;;2569073;23;19997;-80
2022/05/04 05:32:34;;;;;;;;;;;;;;;;;;;;;
2022/05/04 05:33:55;;;;;;;3.58;2.55;;;;;;;;;;2582547;23;20425;-81
2022/05/04 05:35:07;;;;;;;4.97;3.67;;;;;;;;;;2586297;23;19996;-81
2022/05/04 05:36:07;;;;;;;3.67;2.92;;;;;;;;;;2586666;23;19992;-82
2022/05/04 05:37:13;;;;;;;3.95;2.88;;;;;;;;;;2587092;23;20288;-82
2022/05/04 05:38:16;;;;;;;3.53;3.15;;;;;;;;;;2586936;23;20000;-81
2022/05/04 05:39:22;;;;;;;7.35;3.40;;;;;;;;;;2586353;23;20411;-81
2022/05/04 05:40:28;;;;;;;4.07;2.85;;;;;;;;;;2586646;23;20003;-82
2022/05/04 05:41:29;;;;;;;3.45;2.50;;;;;;;;;;2586536;22;20007;-82
2022/05/04 05:42:30;;;;;;;3.72;2.60;;;;;;;;;;2586297;23;19996;-82
2022/05/04 05:43:35;;;;;;;3.35;3.05;;;;;;;;;;2586243;23;20378;-81
2022/05/04 05:44:44;;;;;;;4.45;3.35;;;;;;;;;;2581953;23;20083;-82
2022/05/04 05:45:48;;;;;;;3.97;3.38;;;;;;;;;;2586795;23;20007;-81
2022/05/04 05:47:13;;;;;;;8.68;4.35;;;;;;;;;;2587466;23;19992;-82
2022/05/04 05:48:14;;;;;;;4.40;2.83;;;;;;;;;;2582132;23;20679;-82
2022/05/04 05:49:33;;;;;;;;;;;;;;;;;;;;;
2022/05/04 05:50:34;;;;;;;2.92;2.60;;;;;;;;;;2583175;23;20008;-81
2022/05/04 05:51:35;;;;;;;4.30;3.00;;;;;;;;;;2586345;22;20410;-81
2022/05/04 05:52:56;;;;;;;3.35;2.50;;;;;;;;;;2586590;23;20065;-81
2022/05/04 05:53:56;;;;;;;4.50;3.05;;;;;;;;;;2582106;23;19996;-81
2022/05/04 05:54:59;;;;;;;3.50;2.40;;;;;;;;;;2586774;23;20469;-80
2022/05/04 05:55:59;;;;;;;6.70;3.08;;;;;;;;;;2587223;23;19992;-80
2022/05/04 05:57:09;;;;;;;3.90;3.10;;;;;;;;;;2587002;23;20079;-80
2022/05/04 05:58:12;;;;;;;3.78;2.80;;;;;;;;;;2587305;23;20012;-80
2022/05/04 05:59:29;;;;;;;3.45;2.88;;;;;;;;;;2582604;23;19996;-81
2022/05/04 06:00:29;;;;;;;3.45;2.70;;;;;;;;;;2586863;23;19992;-81
2022/05/04 06:01:30;;;;;;;3.78;3.00;;;;;;;;;;2586913;22;20000;-81
2022/05/04 06:02:34;;;;;;;3.25;2.80;;;;;;;;;;2569929;23;19997;-81
2022/05/04 06:03:42;;;;;;;4.45;2.60;;;;;;;;;;2574568;23;20060;-81
2022/05/04 06:04:45;;;;;;;3.33;2.42;;;;;;;;;;2586298;23;20075;-81
2022/05/04 06:05:45;;;;;;;4.93;2.40;;;;;;;;;;2586409;23;19992;-80
2022/05/04 06:06:55;;;;;;;4.15;3.00;;;;;;;;;;2568962;23;20067;-80
2022/05/04 06:07:58;;;;;;;3.17;2.60;;;;;;;;;;2575219;23;19992;-80
2022/05/04 06:09:02;;;;;;;5.15;3.33;;;;;;;;;;2586398;23;20417;-80
2022/05/04 06:10:15;;;;;;;5.97;3.30;;;;;;;;;;2582253;23;20033;-81
2022/05/04 06:11:18;;;;;;;4.32;2.88;;;;;;;;;;2586131;22;19992;-82
2022/05/04 06:12:21;;;;;;;3.63;2.80;;;;;;;;;;2581858;23;19992;-81
2022/05/04 06:13:21;;;;;;;5.88;3.83;;;;;;;;;;2581627;23;20438;-81
2022/05/04 06:14:32;;;;;;;2.85;2.50;;;;;;;;;;2585301;23;20003;-81
2022/05/04 06:15:33;;;;;;;4.47;2.95;;;;;;;;;;2586011;23;20403;-81
2022/05/04 06:16:40;;;;;;;3.42;2.22;;;;;;;;;;2586203;23;20019;-81
2022/05/04 06:17:49;;;;;;;2.40;2.13;;;;;;;;;;2585824;23;20019;-82
2022/05/04 06:19:40;;;;;;;;;;;;;;;;;;;;;
2022/05/04 06:20:35;;;;;;;3.17;2.13;;;;;;;;;;2572898;23;20008;-81
2022/05/04 06:21:46;;;;;;;2.88;1.90;;;;;;;;;;2586664;22;20442;-81
2022/05/04 06:22:47;;;;;;;3.92;1.92;;;;;;;;;;2587319;23;20295;-81
2022/05/04 06:23:52;;;;;;;2.70;1.88;;;;;;;;;;2587162;23;20358;-81
2022/05/04 06:24:55;;;;;;;2.22;1.88;;;;;;;;;;2583102;23;20003;-81
2022/05/04 06:26:20;;;;;;;2.20;2.00;;;;;;;;;;2569542;23;20072;-81
2022/05/04 06:27:23;;;;;;;2.83;1.77;;;;;;;;;;2579739;23;20410;-81
2022/05/04 06:28:28;;;;;;;2.47;1.67;;;;;;;;;;2583767;23;20074;-81
2022/05/04 06:34:14;;;;;;;1.85;1.40;;;;;;;;;;2587042;23;20067;-82
2022/05/04 06:35:22;;;;;;;2.65;1.98;;;;;;;;;;2587317;23;19992;-82
2022/05/04 06:36:50;;;;;;;3.42;2.00;;;;;;;;;;2587216;23;20034;-81
2022/05/04 06:37:57;;;;;;;3.08;2.25;;;;;;;;;;2586837;23;20054;-82
2022/05/04 06:39:03;;;;;;;3.97;1.83;;;;;;;;;;2587312;23;19996;-82
2022/05/04 06:40:45;;;;;;;2.38;1.88;;;;;;;;;;2574168;23;20001;-82
2022/05/04 06:42:02;;;;;;;3.63;2.25;;;;;;;;;;2577695;23;20315;-81
2022/05/04 06:43:15;;;;;;;3.00;2.10;;;;;;;;;;2587520;23;20411;-81
2022/05/04 06:44:37;;;;;;;2.33;1.63;;;;;;;;;;2574075;23;20032;-81
2022/05/04 06:46:01;;;;;;;2.00;1.63;;;;;;;;;;2578917;23;20469;-83
2022/05/04 06:47:07;;;;;;;1.77;1.27;;;;;;;;;;2574184;23;20024;-83
2022/05/04 06:48:36;;;;;;;2.70;1.40;;;;;;;;;;2562624;23;19997;-82
2022/05/04 06:49:37;;;;;;;2.10;1.23;;;;;;;;;;2575693;23;20003;-82
2022/05/04 06:50:48;;;;;;;;;;;;;;;;;;;;;
2022/05/04 06:51:53;;;;;;;;;;;;;;;;;;2587879;23;19998;-81
2022/05/04 06:52:56;;;;;;;1.42;1.25;;;;;;;;;;2587478;23;19998;-81
2022/05/04 06:54:24;;;;;;;2.65;1.48;;;;;;;;;;2587385;23;20315;-81